createdAt,value
2018-09-02T18:22:26.065Z,19.73
2018-09-02T18:26:30.990Z,19.74
2018-09-02T18:30:34.737Z,19.77
2018-09-02T18:34:39.330Z,19.75
2018-09-02T18:38:43.121Z,19.74
2018-09-02T18:42:46.872Z,19.74
2018-09-02T18:46:51.570Z,19.76
2018-09-02T18:50:55.543Z,19.77
2018-09-02T18:54:59.252Z,19.78
2018-09-02T18:59:05.117Z,19.78
2018-09-02T19:03:09.581Z,19.77
2018-09-02T19:07:18.139Z,19.76
2018-09-02T19:11:22.622Z,19.72
2018-09-02T19:15:26.459Z,19.68
2018-09-02T19:19:29.979Z,19.62
2018-09-02T19:23:41.230Z,19.56
2018-09-02T19:27:44.870Z,19.50
2018-09-02T19:31:48.594Z,19.45
2018-09-02T19:35:53.366Z,19.43
2018-09-02T19:39:57.903Z,19.42
2018-09-02T19:44:04.227Z,19.40
2018-09-02T19:48:07.830Z,19.38
2018-09-02T19:52:11.506Z,19.35
2018-09-02T19:56:16.219Z,19.32
2018-09-02T20:00:19.922Z,19.32
2018-09-02T20:04:24.780Z,19.29
2018-09-02T20:08:30.002Z,19.31
2018-09-02T20:12:37.513Z,19.32
2018-09-02T20:16:41.112Z,19.34
2018-09-02T20:20:44.885Z,19.32
2018-09-02T20:24:48.663Z,19.28
2018-09-02T20:28:53.453Z,19.27
2018-09-02T20:32:58.340Z,19.27
2018-09-02T20:37:02.172Z,19.25
2018-09-02T20:41:06.250Z,19.14
2018-09-02T20:45:10.498Z,19.10
2018-09-02T20:49:15.553Z,19.09
2018-09-02T20:53:19.226Z,19.04
2018-09-02T20:57:22.785Z,19.02
2018-09-02T21:01:26.479Z,18.99
2018-09-02T21:05:30.113Z,18.95
2018-09-02T21:09:33.827Z,18.89
2018-09-02T21:13:38.151Z,18.85
2018-09-02T21:17:42.273Z,18.77
2018-09-02T21:21:45.844Z,18.75
2018-09-02T21:25:49.582Z,18.77
2018-09-02T21:29:53.202Z,18.80
2018-09-02T21:33:57.011Z,18.80
2018-09-02T21:38:02.558Z,18.80
2018-09-02T21:42:06.121Z,18.78
2018-09-02T21:46:09.793Z,18.69
2018-09-02T21:50:13.910Z,18.55
2018-09-02T21:54:17.606Z,18.50
2018-09-02T21:58:22.321Z,18.37
2018-09-02T22:02:25.953Z,18.29
2018-09-02T22:06:30.682Z,18.21
2018-09-02T22:10:34.360Z,18.17
2018-09-02T22:14:38.110Z,18.15
2018-09-02T22:18:41.747Z,18.11
2018-09-02T22:22:45.450Z,17.95
2018-09-02T22:26:49.041Z,17.91
2018-09-02T22:30:52.625Z,17.86
2018-09-02T22:34:56.183Z,17.82
2018-09-02T22:38:59.774Z,17.78
2018-09-02T22:43:03.382Z,17.81
2018-09-02T22:47:07.278Z,17.85
2018-09-02T22:51:11.183Z,17.89
2018-09-02T22:55:14.773Z,17.91
2018-09-02T22:59:18.370Z,17.91
2018-09-02T23:03:21.962Z,17.87
2018-09-02T23:07:26.138Z,17.89
2018-09-02T23:11:29.795Z,17.94
2018-09-02T23:15:33.461Z,17.94
2018-09-02T23:19:37.144Z,17.93
2018-09-02T23:23:40.879Z,17.95
2018-09-02T23:27:44.579Z,17.96
2018-09-02T23:31:48.275Z,17.93
2018-09-02T23:35:52.356Z,17.96
2018-09-02T23:39:55.894Z,17.93
2018-09-02T23:43:59.579Z,17.94
2018-09-02T23:48:03.098Z,17.96
2018-09-02T23:52:06.828Z,17.97
2018-09-02T23:56:10.518Z,17.96
